sensor_id;sensor_type;location;lat;lon;timestamp;pressure;altitude;pressure_sealevel;temperature;humidity
65666;BME280;52365;47.464;18.976;2024-03-02T00:00:13;99195.91;;;11.71;72.69
65666;BME280;52365;47.464;18.976;2024-03-02T00:00:34;99195.19;;;11.71;72.56
65666;BME280;52365;47.464;18.976;2024-03-02T00:00:55;99204.03;;;11.71;72.40
65666;BME280;52365;47.464;18.976;2024-03-02T00:01:16;99198.91;;;11.73;72.41
65666;BME280;52365;47.464;18.976;2024-03-02T00:01:37;99205.78;;;11.74;72.47
65666;BME280;52365;47.464;18.976;2024-03-02T00:01:58;99212.66;;;11.75;72.26
65666;BME280;52365;47.464;18.976;2024-03-02T00:02:14;99199.44;;;11.77;72.31
65666;BME280;52365;47.464;18.976;2024-03-02T00:02:42;99202.69;;;11.61;72.41
65666;BME280;52365;47.464;18.976;2024-03-02T00:03:03;99210.09;;;11.66;72.56
65666;BME280;52365;47.464;18.976;2024-03-02T00:03:24;99202.19;;;11.63;72.57
65666;BME280;52365;47.464;18.976;2024-03-02T00:03:45;99211.13;;;11.48;73.07
65666;BME280;52365;47.464;18.976;2024-03-02T00:04:07;99205.53;;;11.52;73.04
65666;BME280;52365;47.464;18.976;2024-03-02T00:04:28;99207.69;;;11.68;72.81
65666;BME280;52365;47.464;18.976;2024-03-02T00:04:49;99209.50;;;11.56;72.72
65666;BME280;52365;47.464;18.976;2024-03-02T00:05:15;99201.50;;;11.42;73.04
65666;BME280;52365;47.464;18.976;2024-03-02T00:05:36;99199.59;;;11.48;73.25
65666;BME280;52365;47.464;18.976;2024-03-02T00:05:57;99194.44;;;11.50;73.07
65666;BME280;52365;47.464;18.976;2024-03-02T00:06:20;99200.19;;;11.57;72.87
65666;BME280;52365;47.464;18.976;2024-03-02T00:06:41;99198.75;;;11.62;72.76
65666;BME280;52365;47.464;18.976;2024-03-02T00:07:02;99200.03;;;11.67;72.67
65666;BME280;52365;47.464;18.976;2024-03-02T00:07:26;99201.28;;;11.86;72.20
65666;BME280;52365;47.464;18.976;2024-03-02T00:07:57;99198.75;;;12.03;71.56
65666;BME280;52365;47.464;18.976;2024-03-02T00:08:23;99198.13;;;12.19;70.72
65666;BME280;52365;47.464;18.976;2024-03-02T00:08:46;99193.00;;;12.21;70.20
65666;BME280;52365;47.464;18.976;2024-03-02T00:09:09;99197.16;;;12.17;70.32
65666;BME280;52365;47.464;18.976;2024-03-02T00:09:30;99191.47;;;12.15;70.21
65666;BME280;52365;47.464;18.976;2024-03-02T00:09:46;99192.53;;;11.97;70.46
65666;BME280;52365;47.464;18.976;2024-03-02T00:10:09;99190.12;;;11.78;70.87
65666;BME280;52365;47.464;18.976;2024-03-02T00:10:37;99187.03;;;11.65;71.70
65666;BME280;52365;47.464;18.976;2024-03-02T00:11:00;99190.31;;;11.75;71.62
65666;BME280;52365;47.464;18.976;2024-03-02T00:11:23;99191.66;;;11.85;71.49
65666;BME280;52365;47.464;18.976;2024-03-02T00:11:44;99193.63;;;11.84;71.53
65666;BME280;52365;47.464;18.976;2024-03-02T00:12:05;99190.41;;;12.06;70.99
65666;BME280;52365;47.464;18.976;2024-03-02T00:12:26;99190.19;;;12.10;70.48
65666;BME280;52365;47.464;18.976;2024-03-02T00:12:47;99187.63;;;11.95;70.68
65666;BME280;52365;47.464;18.976;2024-03-02T00:13:09;99185.72;;;11.81;70.95
65666;BME280;52365;47.464;18.976;2024-03-02T00:13:30;99187.03;;;11.65;71.48
65666;BME280;52365;47.464;18.976;2024-03-02T00:13:53;99184.47;;;11.56;71.96
65666;BME280;52365;47.464;18.976;2024-03-02T00:14:15;99186.09;;;11.68;72.03
65666;BME280;52365;47.464;18.976;2024-03-02T00:14:36;99189.97;;;11.67;71.89
65666;BME280;52365;47.464;18.976;2024-03-02T00:14:57;99184.69;;;11.52;72.15
65666;BME280;52365;47.464;18.976;2024-03-02T00:15:47;99184.19;;;11.74;71.92
65666;BME280;52365;47.464;18.976;2024-03-02T00:16:08;99186.69;;;11.78;71.49
65666;BME280;52365;47.464;18.976;2024-03-02T00:16:31;99181.88;;;11.67;71.33
65666;BME280;52365;47.464;18.976;2024-03-02T00:16:55;99183.44;;;11.74;71.37
65666;BME280;52365;47.464;18.976;2024-03-02T00:17:23;99175.25;;;11.89;71.20
65666;BME280;52365;47.464;18.976;2024-03-02T00:17:52;99178.50;;;11.93;70.74
65666;BME280;52365;47.464;18.976;2024-03-02T00:18:19;99178.97;;;12.17;70.13
65666;BME280;52365;47.464;18.976;2024-03-02T00:18:41;99174.06;;;11.69;70.54
65666;BME280;52365;47.464;18.976;2024-03-02T00:19:05;99178.94;;;11.65;70.75
65666;BME280;52365;47.464;18.976;2024-03-02T00:19:26;99183.19;;;11.51;71.25
65666;BME280;52365;47.464;18.976;2024-03-02T00:19:47;99167.59;;;11.41;71.64
65666;BME280;52365;47.464;18.976;2024-03-02T00:20:09;99168.88;;;11.45;71.63
65666;BME280;52365;47.464;18.976;2024-03-02T00:20:31;99177.06;;;11.51;71.62
65666;BME280;52365;47.464;18.976;2024-03-02T00:20:57;99171.13;;;11.47;71.63
65666;BME280;52365;47.464;18.976;2024-03-02T00:21:18;99175.69;;;11.41;71.91
65666;BME280;52365;47.464;18.976;2024-03-02T00:21:41;99178.00;;;11.48;71.91
65666;BME280;52365;47.464;18.976;2024-03-02T00:22:03;99179.00;;;11.71;71.41
65666;BME280;52365;47.464;18.976;2024-03-02T00:22:24;99178.53;;;11.72;70.97
65666;BME280;52365;47.464;18.976;2024-03-02T00:22:45;99171.91;;;11.73;71.01
65666;BME280;52365;47.464;18.976;2024-03-02T00:23:07;99173.06;;;11.87;70.46
65666;BME280;52365;47.464;18.976;2024-03-02T00:23:30;99180.09;;;12.05;70.01
65666;BME280;52365;47.464;18.976;2024-03-02T00:23:53;99178.13;;;12.05;69.67
65666;BME280;52365;47.464;18.976;2024-03-02T00:24:34;99174.69;;;12.05;69.66
65666;BME280;52365;47.464;18.976;2024-03-02T00:24:58;99177.66;;;12.07;69.40
65666;BME280;52365;47.464;18.976;2024-03-02T00:25:20;99170.69;;;11.95;69.52
65666;BME280;52365;47.464;18.976;2024-03-02T00:25:53;99177.03;;;11.92;69.66
65666;BME280;52365;47.464;18.976;2024-03-02T00:26:15;99172.31;;;11.87;69.90
65666;BME280;52365;47.464;18.976;2024-03-02T00:26:36;99168.13;;;11.86;70.05
65666;BME280;52365;47.464;18.976;2024-03-02T00:26:57;99169.63;;;11.87;70.04
65666;BME280;52365;47.464;18.976;2024-03-02T00:27:19;99175.97;;;11.83;70.12
65666;BME280;52365;47.464;18.976;2024-03-02T00:27:40;99184.19;;;11.74;70.30
65666;BME280;52365;47.464;18.976;2024-03-02T00:28:02;99168.81;;;11.60;70.59
65666;BME280;52365;47.464;18.976;2024-03-02T00:28:30;99170.56;;;11.63;70.70
65666;BME280;52365;47.464;18.976;2024-03-02T00:28:55;99177.53;;;11.49;71.02
65666;BME280;52365;47.464;18.976;2024-03-02T00:29:21;99172.41;;;11.51;71.11
65666;BME280;52365;47.464;18.976;2024-03-02T00:29:42;99172.94;;;11.55;71.07
65666;BME280;52365;47.464;18.976;2024-03-02T00:30:39;99175.84;;;11.52;71.01
65666;BME280;52365;47.464;18.976;2024-03-02T00:31:08;99170.87;;;11.91;70.23
65666;BME280;52365;47.464;18.976;2024-03-02T00:31:32;99169.03;;;12.03;69.35
65666;BME280;52365;47.464;18.976;2024-03-02T00:31:53;99168.34;;;12.08;68.97
65666;BME280;52365;47.464;18.976;2024-03-02T00:32:15;99169.94;;;11.94;69.15
65666;BME280;52365;47.464;18.976;2024-03-02T00:32:37;99167.19;;;11.68;69.78
65666;BME280;52365;47.464;18.976;2024-03-02T00:32:59;99171.91;;;11.73;69.81
65666;BME280;52365;47.464;18.976;2024-03-02T00:33:20;99177.25;;;11.68;70.04
65666;BME280;52365;47.464;18.976;2024-03-02T00:33:46;99172.59;;;11.68;70.11
65666;BME280;52365;47.464;18.976;2024-03-02T00:34:07;99177.09;;;11.77;69.91
65666;BME280;52365;47.464;18.976;2024-03-02T00:34:28;99167.12;;;11.83;69.73
65666;BME280;52365;47.464;18.976;2024-03-02T00:34:44;99175.22;;;11.83;69.67
65666;BME280;52365;47.464;18.976;2024-03-02T00:35:05;99165.03;;;11.72;69.92
65666;BME280;52365;47.464;18.976;2024-03-02T00:35:26;99174.59;;;11.73;70.09
65666;BME280;52365;47.464;18.976;2024-03-02T00:35:48;99174.66;;;11.79;70.03
65666;BME280;52365;47.464;18.976;2024-03-02T00:36:11;99175.53;;;11.70;70.07
65666;BME280;52365;47.464;18.976;2024-03-02T00:36:33;99174.41;;;11.56;70.38
65666;BME280;52365;47.464;18.976;2024-03-02T00:36:57;99176.00;;;11.43;71.00
65666;BME280;52365;47.464;18.976;2024-03-02T00:37:18;99173.75;;;11.41;71.25
65666;BME280;52365;47.464;18.976;2024-03-02T00:37:39;99170.59;;;11.43;71.41
65666;BME280;52365;47.464;18.976;2024-03-02T00:38:06;99165.44;;;11.65;71.02
65666;BME280;52365;47.464;18.976;2024-03-02T00:38:27;99183.09;;;11.66;70.69
65666;BME280;52365;47.464;18.976;2024-03-02T00:38:50;99181.03;;;11.55;70.82
65666;BME280;52365;47.464;18.976;2024-03-02T00:39:12;99180.31;;;11.55;70.88
65666;BME280;52365;47.464;18.976;2024-03-02T00:39:35;99180.06;;;11.58;70.97
65666;BME280;52365;47.464;18.976;2024-03-02T00:39:56;99183.00;;;11.34;71.22
65666;BME280;52365;47.464;18.976;2024-03-02T00:40:17;99178.66;;;11.22;71.80
65666;BME280;52365;47.464;18.976;2024-03-02T00:40:39;99182.19;;;11.28;71.96
65666;BME280;52365;47.464;18.976;2024-03-02T00:41:05;99182.72;;;11.32;71.83
65666;BME280;52365;47.464;18.976;2024-03-02T00:41:32;99186.63;;;11.31;71.92
65666;BME280;52365;47.464;18.976;2024-03-02T00:41:53;99188.25;;;11.44;71.69
65666;BME280;52365;47.464;18.976;2024-03-02T00:42:14;99185.06;;;11.45;71.53
65666;BME280;52365;47.464;18.976;2024-03-02T00:42:35;99177.81;;;11.31;71.70
65666;BME280;52365;47.464;18.976;2024-03-02T00:42:56;99179.06;;;11.56;71.32
65666;BME280;52365;47.464;18.976;2024-03-02T00:43:40;99190.81;;;11.73;70.75
65666;BME280;52365;47.464;18.976;2024-03-02T00:44:03;99173.53;;;11.65;70.72
65666;BME280;52365;47.464;18.976;2024-03-02T00:44:25;99185.75;;;11.60;70.80
65666;BME280;52365;47.464;18.976;2024-03-02T00:44:55;99183.41;;;11.68;70.47
65666;BME280;52365;47.464;18.976;2024-03-02T00:45:16;99181.97;;;11.52;70.83
65666;BME280;52365;47.464;18.976;2024-03-02T00:45:39;99181.50;;;11.54;70.80
65666;BME280;52365;47.464;18.976;2024-03-02T00:46:00;99182.12;;;11.64;70.62
65666;BME280;52365;47.464;18.976;2024-03-02T00:46:21;99181.62;;;11.65;70.53
65666;BME280;52365;47.464;18.976;2024-03-02T00:46:44;99182.16;;;11.69;70.40
65666;BME280;52365;47.464;18.976;2024-03-02T00:47:04;99175.06;;;11.72;70.38
65666;BME280;52365;47.464;18.976;2024-03-02T00:47:25;99175.28;;;11.68;70.31
65666;BME280;52365;47.464;18.976;2024-03-02T00:47:46;99186.53;;;11.67;70.30
65666;BME280;52365;47.464;18.976;2024-03-02T00:48:08;99180.53;;;11.77;70.24
65666;BME280;52365;47.464;18.976;2024-03-02T00:48:29;99178.94;;;11.86;70.06
65666;BME280;52365;47.464;18.976;2024-03-02T00:48:56;99174.66;;;11.79;69.98
65666;BME280;52365;47.464;18.976;2024-03-02T00:49:22;99176.22;;;11.65;70.17
65666;BME280;52365;47.464;18.976;2024-03-02T00:49:46;99180.66;;;11.42;70.57
65666;BME280;52365;47.464;18.976;2024-03-02T00:50:08;99179.03;;;11.50;70.76
65666;BME280;52365;47.464;18.976;2024-03-02T00:50:29;99183.78;;;11.41;71.00
65666;BME280;52365;47.464;18.976;2024-03-02T00:50:52;99182.12;;;11.43;71.22
65666;BME280;52365;47.464;18.976;2024-03-02T00:51:08;99186.44;;;11.55;70.92
65666;BME280;52365;47.464;18.976;2024-03-02T00:51:30;99185.84;;;11.46;71.01
65666;BME280;52365;47.464;18.976;2024-03-02T00:51:52;99186.63;;;11.72;70.63
65666;BME280;52365;47.464;18.976;2024-03-02T00:52:14;99184.87;;;11.69;70.29
65666;BME280;52365;47.464;18.976;2024-03-02T00:52:35;99191.41;;;11.83;70.05
65666;BME280;52365;47.464;18.976;2024-03-02T00:52:56;99181.34;;;11.83;69.91
65666;BME280;52365;47.464;18.976;2024-03-02T00:53:12;99192.34;;;11.80;70.02
65666;BME280;52365;47.464;18.976;2024-03-02T00:53:33;99189.06;;;11.91;69.71
65666;BME280;52365;47.464;18.976;2024-03-02T00:53:55;99191.25;;;11.72;70.07
65666;BME280;52365;47.464;18.976;2024-03-02T00:54:27;99183.00;;;11.55;70.36
65666;BME280;52365;47.464;18.976;2024-03-02T00:54:49;99184.53;;;11.62;70.38
65666;BME280;52365;47.464;18.976;2024-03-02T00:55:10;99191.22;;;11.66;70.16
65666;BME280;52365;47.464;18.976;2024-03-02T00:55:36;99190.81;;;11.73;70.16
65666;BME280;52365;47.464;18.976;2024-03-02T00:55:57;99184.19;;;11.74;70.16
65666;BME280;52365;47.464;18.976;2024-03-02T00:56:19;99185.41;;;11.73;70.03
65666;BME280;52365;47.464;18.976;2024-03-02T00:56:41;99190.06;;;11.73;69.94
65666;BME280;52365;47.464;18.976;2024-03-02T00:57:03;99186.53;;;11.67;70.18
65666;BME280;52365;47.464;18.976;2024-03-02T00:57:25;99185.28;;;11.82;69.99
65666;BME280;52365;47.464;18.976;2024-03-02T00:57:47;99186.88;;;11.74;69.92
65666;BME280;52365;47.464;18.976;2024-03-02T00:58:08;99184.97;;;11.80;69.88
65666;BME280;52365;47.464;18.976;2024-03-02T00:58:29;99189.19;;;11.81;69.87
65666;BME280;52365;47.464;18.976;2024-03-02T00:58:50;99194.81;;;12.04;69.37
65666;BME280;52365;47.464;18.976;2024-03-02T00:59:12;99194.56;;;11.81;69.53
65666;BME280;52365;47.464;18.976;2024-03-02T00:59:33;99188.78;;;11.68;70.08
65666;BME280;52365;47.464;18.976;2024-03-02T00:59:52;99191.50;;;11.68;70.27
65666;BME280;52365;47.464;18.976;2024-03-02T01:00:13;99189.12;;;11.55;70.48
65666;BME280;52365;47.464;18.976;2024-03-02T01:00:35;99184.06;;;11.63;70.63
65666;BME280;52365;47.464;18.976;2024-03-02T01:00:56;99182.16;;;11.69;70.34
65666;BME280;52365;47.464;18.976;2024-03-02T01:01:18;99190.63;;;11.56;70.56
65666;BME280;52365;47.464;18.976;2024-03-02T01:01:40;99180.63;;;11.63;70.74
65666;BME280;52365;47.464;18.976;2024-03-02T01:02:01;99185.94;;;11.57;70.75
65666;BME280;52365;47.464;18.976;2024-03-02T01:02:22;99183.25;;;11.77;70.53
65666;BME280;52365;47.464;18.976;2024-03-02T01:02:43;99188.50;;;11.87;70.12
65666;BME280;52365;47.464;18.976;2024-03-02T01:03:06;99185.94;;;11.57;70.40
65666;BME280;52365;47.464;18.976;2024-03-02T01:03:28;99182.12;;;11.64;70.64
65666;BME280;52365;47.464;18.976;2024-03-02T01:03:49;99182.12;;;11.43;71.03
65666;BME280;52365;47.464;18.976;2024-03-02T01:04:10;99184.81;;;11.43;71.24
65666;BME280;52365;47.464;18.976;2024-03-02T01:04:31;99188.66;;;11.57;71.07
65666;BME280;52365;47.464;18.976;2024-03-02T01:04:52;99187.63;;;11.54;70.95
65666;BME280;52365;47.464;18.976;2024-03-02T01:05:13;99183.25;;;11.57;70.83
65666;BME280;52365;47.464;18.976;2024-03-02T01:05:34;99176.38;;;11.56;70.92
65666;BME280;52365;47.464;18.976;2024-03-02T01:05:56;99181.50;;;11.54;70.74
65666;BME280;52365;47.464;18.976;2024-03-02T01:06:17;99186.09;;;11.68;70.55
65666;BME280;52365;47.464;18.976;2024-03-02T01:06:38;99176.72;;;11.43;70.63
65666;BME280;52365;47.464;18.976;2024-03-02T01:06:59;99183.53;;;11.39;71.01
65666;BME280;52365;47.464;18.976;2024-03-02T01:07:19;99183.94;;;11.52;70.80
65666;BME280;52365;47.464;18.976;2024-03-02T01:07:40;99182.31;;;11.60;70.45
65666;BME280;52365;47.464;18.976;2024-03-02T01:08:01;99189.19;;;11.61;70.45
65666;BME280;52365;47.464;18.976;2024-03-02T01:08:23;99180.91;;;11.65;70.20
65666;BME280;52365;47.464;18.976;2024-03-02T01:08:44;99180.41;;;11.66;70.12
65666;BME280;52365;47.464;18.976;2024-03-02T01:09:05;99180.41;;;11.66;70.07
65666;BME280;52365;47.464;18.976;2024-03-02T01:09:26;99185.03;;;11.60;70.01
65666;BME280;52365;47.464;18.976;2024-03-02T01:09:47;99179.91;;;11.42;nan
65666;BME280;52365;47.464;18.976;2024-03-02T01:10:04;99183.94;;;11.31;70.26
65666;BME280;52365;47.464;18.976;2024-03-02T01:10:25;99184.91;;;11.28;70.23
65666;BME280;52365;47.464;18.976;2024-03-02T01:10:49;99179.75;;;11.30;70.26
65666;BME280;52365;47.464;18.976;2024-03-02T01:11:10;99189.53;;;11.28;70.39
65666;BME280;52365;47.464;18.976;2024-03-02T01:11:31;99184.63;;;11.47;70.10
65666;BME280;52365;47.464;18.976;2024-03-02T01:11:52;99185.50;;;11.38;69.89
65666;BME280;52365;47.464;18.976;2024-03-02T01:12:13;99186.25;;;11.39;69.82
65666;BME280;52365;47.464;18.976;2024-03-02T01:12:34;99182.72;;;11.53;69.53
65666;BME280;52365;47.464;18.976;2024-03-02T01:12:55;99185.69;;;11.55;69.51
65666;BME280;52365;47.464;18.976;2024-03-02T01:13:16;99187.13;;;11.76;69.13
65666;BME280;52365;47.464;18.976;2024-03-02T01:13:37;99181.44;;;11.69;68.93
65666;BME280;52365;47.464;18.976;2024-03-02T01:13:58;99182.38;;;11.66;69.04
65666;BME280;52365;47.464;18.976;2024-03-02T01:14:19;99192.97;;;11.69;69.23
65666;BME280;52365;47.464;18.976;2024-03-02T01:14:40;99187.03;;;11.65;69.08
65666;BME280;52365;47.464;18.976;2024-03-02T01:15:00;99185.94;;;11.57;69.25
65666;BME280;52365;47.464;18.976;2024-03-02T01:15:21;99184.81;;;11.64;69.02
65666;BME280;52365;47.464;18.976;2024-03-02T01:15:37;99188.50;;;11.87;68.54
65666;BME280;52365;47.464;18.976;2024-03-02T01:15:59;99187.78;;;11.86;68.25
65666;BME280;52365;47.464;18.976;2024-03-02T01:16:20;99185.56;;;11.64;68.81
65666;BME280;52365;47.464;18.976;2024-03-02T01:16:41;99188.25;;;11.64;69.09
65666;BME280;52365;47.464;18.976;2024-03-02T01:17:02;99187.91;;;11.77;68.85
65666;BME280;52365;47.464;18.976;2024-03-02T01:17:25;99178.00;;;11.68;68.94
65666;BME280;52365;47.464;18.976;2024-03-02T01:17:46;99186.53;;;11.67;69.05
65666;BME280;52365;47.464;18.976;2024-03-02T01:18:06;99184.50;;;11.82;68.86
65666;BME280;52365;47.464;18.976;2024-03-02T01:18:28;99182.91;;;11.70;68.96
65666;BME280;52365;47.464;18.976;2024-03-02T01:18:49;99181.25;;;11.52;69.42
65666;BME280;52365;47.464;18.976;2024-03-02T01:19:10;99182.78;;;11.58;69.62
65666;BME280;52365;47.464;18.976;2024-03-02T01:19:31;99189.38;;;11.78;69.33
65666;BME280;52365;47.464;18.976;2024-03-02T01:19:52;99178.84;;;11.80;69.12
65666;BME280;52365;47.464;18.976;2024-03-02T01:20:13;99171.09;;;11.88;68.94
65666;BME280;52365;47.464;18.976;2024-03-02T01:20:34;99179.47;;;11.90;68.76
65666;BME280;52365;47.464;18.976;2024-03-02T01:20:55;99179.16;;;12.08;68.43
65666;BME280;52365;47.464;18.976;2024-03-02T01:21:16;99175.63;;;12.02;68.25
65666;BME280;52365;47.464;18.976;2024-03-02T01:21:37;99181.12;;;12.07;68.14
65666;BME280;52365;47.464;18.976;2024-03-02T01:21:58;99175.53;;;11.91;68.20
65666;BME280;52365;47.464;18.976;2024-03-02T01:22:19;99175.75;;;11.87;68.48
65666;BME280;52365;47.464;18.976;2024-03-02T01:22:45;99181.16;;;11.67;68.77
65666;BME280;52365;47.464;18.976;2024-03-02T01:23:06;99176.00;;;11.43;69.56
65666;BME280;52365;47.464;18.976;2024-03-02T01:23:27;99168.69;;;11.49;69.74
65666;BME280;52365;47.464;18.976;2024-03-02T01:23:48;99169.44;;;11.49;69.69
65666;BME280;52365;47.464;18.976;2024-03-02T01:24:09;99169.13;;;11.42;69.89
65666;BME280;52365;47.464;18.976;2024-03-02T01:24:30;99173.53;;;11.45;69.89
65666;BME280;52365;47.464;18.976;2024-03-02T01:24:51;99170.06;;;11.39;70.10
65666;BME280;52365;47.464;18.976;2024-03-02T01:25:13;99168.88;;;11.45;70.10
65666;BME280;52365;47.464;18.976;2024-03-02T01:25:34;99166.28;;;11.51;69.86
65666;BME280;52365;47.464;18.976;2024-03-02T01:25:56;99165.44;;;11.45;69.82
65666;BME280;52365;47.464;18.976;2024-03-02T01:26:17;99166.12;;;11.40;69.87
65666;BME280;52365;47.464;18.976;2024-03-02T01:26:38;99169.13;;;11.42;69.90
65666;BME280;52365;47.464;18.976;2024-03-02T01:26:59;99166.28;;;11.51;69.75
65666;BME280;52365;47.464;18.976;2024-03-02T01:27:20;99170.84;;;11.65;69.41
65666;BME280;52365;47.464;18.976;2024-03-02T01:27:40;99162.75;;;11.65;69.19
65666;BME280;52365;47.464;18.976;2024-03-02T01:28:01;99161.72;;;11.63;69.09
65666;BME280;52365;47.464;18.976;2024-03-02T01:28:23;99160.06;;;11.45;69.39
65666;BME280;52365;47.464;18.976;2024-03-02T01:28:38;99165.53;;;11.30;69.88
65666;BME280;52365;47.464;18.976;2024-03-02T01:28:59;99159.66;;;11.31;70.04
65666;BME280;52365;47.464;18.976;2024-03-02T01:29:22;99163.50;;;11.25;70.19
65666;BME280;52365;47.464;18.976;2024-03-02T01:29:43;99165.19;;;11.43;70.12
65666;BME280;52365;47.464;18.976;2024-03-02T01:30:04;99156.34;;;11.22;70.15
65666;BME280;52365;47.464;18.976;2024-03-02T01:30:25;99155.47;;;11.10;70.39
65666;BME280;52365;47.464;18.976;2024-03-02T01:30:49;99157.50;;;11.15;70.54
65666;BME280;52365;47.464;18.976;2024-03-02T01:31:10;99162.56;;;11.28;70.27
65666;BME280;52365;47.464;18.976;2024-03-02T01:31:31;99154.00;;;11.29;70.01
65666;BME280;52365;47.464;18.976;2024-03-02T01:31:53;99152.09;;;11.35;69.78
65666;BME280;52365;47.464;18.976;2024-03-02T01:32:14;99161.13;;;11.32;69.63
65666;BME280;52365;47.464;18.976;2024-03-02T01:32:38;99154.47;;;11.28;69.74
65666;BME280;52365;47.464;18.976;2024-03-02T01:32:59;99152.31;;;11.32;69.81
65666;BME280;52365;47.464;18.976;2024-03-02T01:33:21;99156.75;;;11.15;69.91
65666;BME280;52365;47.464;18.976;2024-03-02T01:33:42;99157.16;;;11.07;70.41
65666;BME280;52365;47.464;18.976;2024-03-02T01:34:02;99152.12;;;11.15;70.45
65666;BME280;52365;47.464;18.976;2024-03-02T01:34:23;99159.12;;;11.27;70.27
65666;BME280;52365;47.464;18.976;2024-03-02T01:34:45;99151.97;;;11.45;69.86
65666;BME280;52365;47.464;18.976;2024-03-02T01:35:06;99154.09;;;11.61;69.41
65666;BME280;52365;47.464;18.976;2024-03-02T01:35:28;99153.41;;;11.66;69.01
65666;BME280;52365;47.464;18.976;2024-03-02T01:35:49;99147.37;;;11.51;68.98
65666;BME280;52365;47.464;18.976;2024-03-02T01:36:09;99151.50;;;11.26;69.64
65666;BME280;52365;47.464;18.976;2024-03-02T01:36:30;99148.75;;;11.20;69.99
65666;BME280;52365;47.464;18.976;2024-03-02T01:36:51;99140.19;;;11.22;70.28
65666;BME280;52365;47.464;18.976;2024-03-02T01:37:12;99139.81;;;11.14;70.45
65666;BME280;52365;47.464;18.976;2024-03-02T01:37:28;99145.38;;;11.25;70.37
65666;BME280;52365;47.464;18.976;2024-03-02T01:37:49;99148.06;;;11.46;69.98
65666;BME280;52365;47.464;18.976;2024-03-02T01:38:10;99140.34;;;11.59;69.38
65666;BME280;52365;47.464;18.976;2024-03-02T01:38:31;99147.03;;;11.64;69.02
65666;BME280;52365;47.464;18.976;2024-03-02T01:38:52;99150.62;;;11.55;69.07
65666;BME280;52365;47.464;18.976;2024-03-02T01:39:13;99146.00;;;11.61;69.01
65666;BME280;52365;47.464;18.976;2024-03-02T01:39:34;99142.63;;;11.66;68.77
65666;BME280;52365;47.464;18.976;2024-03-02T01:39:55;99148.50;;;11.65;68.58
65666;BME280;52365;47.464;18.976;2024-03-02T01:40:16;99136.62;;;11.56;68.88
65666;BME280;52365;47.464;18.976;2024-03-02T01:40:37;99148.56;;;11.50;69.17
65666;BME280;52365;47.464;18.976;2024-03-02T01:40:58;99142.25;;;11.53;69.18
65666;BME280;52365;47.464;18.976;2024-03-02T01:41:19;99144.47;;;11.54;69.20
65666;BME280;52365;47.464;18.976;2024-03-02T01:41:40;99139.37;;;11.62;69.11
65666;BME280;52365;47.464;18.976;2024-03-02T01:42:01;99145.44;;;11.77;68.77
65666;BME280;52365;47.464;18.976;2024-03-02T01:42:22;99141.59;;;11.84;68.42
65666;BME280;52365;47.464;18.976;2024-03-02T01:42:43;99130.72;;;11.78;68.41
65666;BME280;52365;47.464;18.976;2024-03-02T01:43:05;99138.44;;;11.86;68.17
65666;BME280;52365;47.464;18.976;2024-03-02T01:43:26;99133.69;;;11.80;68.21
65666;BME280;52365;47.464;18.976;2024-03-02T01:43:48;99140.69;;;11.93;68.06
65666;BME280;52365;47.464;18.976;2024-03-02T01:44:09;99138.72;;;11.93;67.97
65666;BME280;52365;47.464;18.976;2024-03-02T01:44:30;99138.34;;;11.80;68.09
65666;BME280;52365;47.464;18.976;2024-03-02T01:44:51;99132.63;;;11.72;68.44
65666;BME280;52365;47.464;18.976;2024-03-02T01:45:12;99129.03;;;11.81;68.58
65666;BME280;52365;47.464;18.976;2024-03-02T01:45:34;99133.91;;;11.77;68.50
65666;BME280;52365;47.464;18.976;2024-03-02T01:45:56;99133.81;;;11.45;69.07
65666;BME280;52365;47.464;18.976;2024-03-02T01:46:17;99140.22;;;11.48;69.47
65666;BME280;52365;47.464;18.976;2024-03-02T01:46:38;99131.38;;;11.68;69.38
65666;BME280;52365;47.464;18.976;2024-03-02T01:46:59;99127.75;;;11.76;68.90
65666;BME280;52365;47.464;18.976;2024-03-02T01:47:20;99130.00;;;11.78;68.74
65666;BME280;52365;47.464;18.976;2024-03-02T01:47:41;99134.06;;;11.94;68.39
65666;BME280;52365;47.464;18.976;2024-03-02T01:48:02;99130.44;;;11.97;68.14
65666;BME280;52365;47.464;18.976;2024-03-02T01:48:23;99127.25;;;11.98;67.99
65666;BME280;52365;47.464;18.976;2024-03-02T01:48:44;99131.53;;;11.84;67.86
65666;BME280;52365;47.464;18.976;2024-03-02T01:49:06;99130.00;;;11.78;68.08
65666;BME280;52365;47.464;18.976;2024-03-02T01:49:26;99127.13;;;11.61;68.28
65666;BME280;52365;47.464;18.976;2024-03-02T01:49:47;99125.09;;;11.56;68.79
65666;BME280;52365;47.464;18.976;2024-03-02T01:50:11;99124.25;;;11.70;68.78
65666;BME280;52365;47.464;18.976;2024-03-02T01:50:28;99126.44;;;11.66;68.55
65666;BME280;52365;47.464;18.976;2024-03-02T01:50:49;99131.13;;;11.45;68.80
65666;BME280;52365;47.464;18.976;2024-03-02T01:51:10;99130.53;;;11.35;69.33
65666;BME280;52365;47.464;18.976;2024-03-02T01:51:32;99139.66;;;11.64;69.19
65666;BME280;52365;47.464;18.976;2024-03-02T01:51:53;99136.31;;;11.75;68.69
65666;BME280;52365;47.464;18.976;2024-03-02T01:52:14;99135.75;;;11.86;68.10
65666;BME280;52365;47.464;18.976;2024-03-02T01:52:35;99131.13;;;11.71;68.19
65666;BME280;52365;47.464;18.976;2024-03-02T01:52:56;99135.72;;;11.39;69.03
65666;BME280;52365;47.464;18.976;2024-03-02T01:53:17;99133.38;;;11.26;69.57
65666;BME280;52365;47.464;18.976;2024-03-02T01:53:38;99126.69;;;11.22;70.00
65666;BME280;52365;47.464;18.976;2024-03-02T01:53:59;99125.59;;;11.14;70.12
65666;BME280;52365;47.464;18.976;2024-03-02T01:54:20;99128.09;;;10.97;70.52
65666;BME280;52365;47.464;18.976;2024-03-02T01:54:41;99133.03;;;10.98;70.62
65666;BME280;52365;47.464;18.976;2024-03-02T01:55:02;99135.88;;;10.74;71.24
65666;BME280;52365;47.464;18.976;2024-03-02T01:55:23;99135.16;;;10.74;71.41